»·PEaware :: N47DT KSNA-KSBD

N47DT :: KSNA-KSBD

FLIGHT INFORMATION

Flight Status: Arrived
Operator: Privately registered:
United States
More flights under this callsign
Pilot: Wayne C. (13792)
Aircraft: CESSNA 172 SKYHAWK
(C172)
More flights by this aircraft type
Origin: KSNA John Wayne-Orange Co
United States
Destination: KSBD San Bernardino Intl
United States
More flights between these airports :: More routes between these airports
Route: +SLI V8 PDZ
File this flight plan on PilotEdge
Remarks: I-4
Altitude:
(Current/Filed)
6,000ft
Speed:
(Current/Filed)
110kts
Departed: 14-May-20 08:14 PM
Arrived: 14-May-20 08:49 PM
Distance/Time
Traveled:
40nm/0:34
Distance/Time
To Go:
Arrived

Flight Plot

Page will automatically refresh every two minutes.


Map Options




Map Legend


Flown Route
Filed Route
Departure Airport
Arrival Airport
Navaid (VOR, NDB)
Fix

Horizontal Profiles

Position Reports

Time Latitude Longitude Heading Altitude Ground
Speed
14-May-20 19:43 33.674459 -117.871752 127 60ft 0kts
14-May-20 19:44 33.674459 -117.871752 127 60ft 0kts
14-May-20 19:45 33.674459 -117.871752 127 60ft 0kts
14-May-20 19:46 33.674459 -117.871752 127 60ft 0kts
14-May-20 19:47 33.674459 -117.871752 127 60ft 0kts
14-May-20 19:48 33.674459 -117.871752 127 60ft 0kts
14-May-20 19:49 33.674459 -117.871752 127 60ft 0kts
14-May-20 19:50 33.674459 -117.871752 127 60ft 0kts
14-May-20 19:51 33.674459 -117.871752 127 60ft 0kts
14-May-20 19:52 33.674459 -117.871752 127 60ft 0kts
14-May-20 19:53 33.674459 -117.871752 127 60ft 0kts
14-May-20 19:54 33.674459 -117.871752 127 60ft 0kts
14-May-20 19:55 33.674459 -117.871752 127 60ft 0kts
14-May-20 19:57 33.674459 -117.871752 127 60ft 0kts
14-May-20 19:58 33.674459 -117.871752 127 60ft 0kts
14-May-20 19:59 33.674459 -117.871752 127 60ft 0kts
14-May-20 20:00 33.674459 -117.871752 127 60ft 0kts
14-May-20 20:01 33.674459 -117.871752 127 60ft 0kts
14-May-20 20:02 33.674459 -117.871752 127 60ft 0kts
14-May-20 20:03 33.674459 -117.871752 127 60ft 0kts
14-May-20 20:04 33.674459 -117.871752 127 60ft 0kts
14-May-20 20:05 33.674459 -117.871752 127 60ft 0kts
14-May-20 20:06 33.674459 -117.871752 127 60ft 0kts
14-May-20 20:07 33.674689 -117.871378 18 60ft 8kts
14-May-20 20:08 33.676408 -117.870443 11 60ft 3kts
14-May-20 20:09 33.679906 -117.867807 22 60ft 22kts
14-May-20 20:10 33.681245 -117.866641 101 60ft 0kts
14-May-20 20:11 33.681241 -117.866615 99 60ft 0kts
14-May-20 20:12 33.681241 -117.866615 99 60ft 0kts
14-May-20 20:13 33.680116 -117.865987 203 60ft 28kts
14-May-20 20:14 33.665433 -117.882700 240 732ft 88kts
14-May-20 20:14 33.658958 -117.905756 237 1518ft 88kts
14-May-20 20:16 33.669850 -117.933558 321 2245ft 112kts
14-May-20 20:16 33.690328 -117.949550 319 2938ft 105kts
14-May-20 20:17 33.714932 -117.968433 319 3646ft 105kts
14-May-20 20:19 33.741087 -117.989388 313 4352ft 104kts
14-May-20 20:19 33.758101 -118.006848 309 4824ft 103kts
14-May-20 20:20 33.778039 -118.030998 320 4978ft 105kts
14-May-20 20:21 33.798993 -118.010862 70 4985ft 114kts
14-May-20 20:22 33.807270 -117.973876 78 4985ft 114kts
14-May-20 20:23 33.814568 -117.936412 78 4984ft 114kts
14-May-20 20:24 33.822455 -117.899297 76 4984ft 114kts
14-May-20 20:25 33.830762 -117.862146 76 4984ft 114kts
14-May-20 20:26 33.839480 -117.825311 70 4984ft 114kts
14-May-20 20:27 33.851250 -117.789468 68 4983ft 115kts
14-May-20 20:28 33.861156 -117.752883 72 4984ft 115kts
14-May-20 20:29 33.870167 -117.715968 72 4984ft 115kts
14-May-20 20:30 33.878194 -117.678058 76 4636ft 120kts
14-May-20 20:31 33.883023 -117.638861 72 4295ft 116kts
14-May-20 20:32 33.892502 -117.601844 77 4030ft 107kts
14-May-20 20:33 33.897503 -117.567485 71 4062ft 102kts
14-May-20 20:34 33.911017 -117.537188 58 4062ft 103kts
14-May-20 20:35 33.933044 -117.518141 12 4064ft 98kts
14-May-20 20:36 33.958385 -117.505085 19 4063ft 100kts
14-May-20 20:37 33.983599 -117.490398 19 4064ft 101kts
14-May-20 20:38 34.009070 -117.475543 19 4065ft 102kts
14-May-20 20:39 34.028588 -117.451724 60 4063ft 108kts
14-May-20 20:40 34.042701 -117.420773 82 3733ft 107kts
14-May-20 20:41 34.046337 -117.390639 64 3490ft 88kts
14-May-20 20:42 34.058302 -117.364888 68 3125ft 91kts
14-May-20 20:43 34.066139 -117.336065 71 2759ft 91kts
14-May-20 20:44 34.075124 -117.305402 72 2195ft 98kts
14-May-20 20:45 34.082300 -117.273338 98 1666ft 91kts
14-May-20 20:46 34.085903 -117.242761 73 1833ft 95kts
14-May-20 20:47 34.094329 -117.212884 31 1963ft 78kts
14-May-20 20:48 34.097838 -117.226077 248 1143ft 38kts
14-May-20 20:49 34.095600 -117.233746 249 1124ft 27kts
14-May-20 20:50 34.096194 -117.236345 331 1118ft 0kts

Navigation Log

Ident Type
Flight plan parsing failed, navigation log unavailable